Terminal Aerodrome Forecast
Issued by NWS

Home | Current Version | Previous Version | Graphics & Text | Print | Product List | Glossary On
Versions: 1 2 3 4 5 6 7 8 9 10 11 12 13 14 15 16 17 18 19
848
FTUS43 KBIS 251721
TAFMOT
TAF
KMOT 251721Z 2518/2618 36014KT P6SM OVC025
     FM260000 02013KT P6SM BKN035
     FM260300 02009KT P6SM BKN045
     FM260600 36009KT P6SM SCT080=

USA.gov is the U.S. government's official web portal to all federal, state and local government web resources and services.